ADDS METAR Data INFO
IDs: Format: Raw Decoded Include TAF

Data at: 1740 UTC 25 Feb 2018

METAR for:KVTA (Newark/Heath Arpt, OH, US)
Text:KVTA 251654Z AUTO 23009KT 10SM CLR 10/04 A2997 RMK AO2 SLP149 T01000039
Temperature: 10.0°C ( 50°F)
Dewpoint: 3.9°C ( 39°F) [RH = 66%]
Pressure (altimeter):29.97 inches Hg (1015.0 mb) [Sea level pressure: 1014.9 mb]
Winds:from the SW (230 degrees) at 10 MPH (9 knots; 4.6 m/s)
Visibility:10 or more sm (16+ km)
Ceiling:at least 12,000 feet AGL
Clouds:sky clear below 12,000 feet AGL
QC Flag:automated observation with no human augmentation